Aeroporto :
LOGIN :

Iscrizione | Disclaimer

   EN    FR    IT 

 










Sommario :    VFR   VFR Marginale   IFR   IFR Intensivo   IFR Molto Intensivo
Visibilità : 
Base nubi : 
>= 8 km
>= 3000ft
5 / 8 km
1000 / 3000 ft
1500m / 5 km
500 / 1000 ft
800 / 1500m
200 / 500 ft
< 800m
< 200 ft
Simboli :   Temporali  Nebbia  Neve Forte  Precipitazioni Forti  Vento > 20 kt
SIGMETs :   Varie  Temporali  Ghiacco  Turbolenza  Onda orograficha  Ceneri Vulcaniche







- Altitudine del aeroporto : 1363 ft


ETIC - Grafenwohr Army Air Field

ULTIMO METAR :
  • 251056Z AUTO 29009G21KT 9999 SCT025 SCT090 06/01 A3002 RMK AO2 RAE02DZB02E31 SLP181 P0000 T00610008 $

METARs OBSOLETI :
  • 250956Z AUTO 26008G18KT 9999 -RA SCT010 BKN020 OVC028 04/01 A3004 RMK AO2 DZB27E39DZB43E46RAB46 CIG 020V026 SLP188 P0000 T00400010 $
  • 250943Z AUTO 27009G17KT 9999 -DZ FEW018 SCT023 BKN028 BKN034 OVC050 05/00 A3003 RMK AO2 DZB27E39DZB43 SLP183 $
  • 250927Z AUTO 27014G20KT 9999 -DZ SCT025 BKN050 OVC060 05/01 A3002 RMK AO2 DZB27 SLP179 $
  • 250900Z AUTO 25008KT 9999 FEW006 SCT029 BKN034 OVC065 04/01 A3003 RMK AO2 SLP183 $
  • 250843Z AUTO 26013KT 9999 -RA FEW006 FEW011 SCT022 BKN028 BKN036 OVC044 04/00 A3003 RMK AO2 RAB17E29DZB32E36RAB36 CIG 028V044 SLP184 $

TAF TAF ETIC
Valido dal 25 a 04 ore il 26 a 10 ore UTC


250400Z 2504/2610 VRB06KT 9999 BKN030 OVC060 QNH3004INS
BECMG 2507/2508 29010KT 9000 -SHRA BKN025 OVC050 QNH2999INS
TEMPO 2513/2518 28018G30KT 8000 SHRA VCTS BKN040CB
BECMG 2519/2520 28012G20KT 9999 NSW BKN020 OVC050 QNH3005INS TX06/2506Z TN02/2512Z
Nessun NOTAM noto per questo aeroporto.



MetMap, La meteo Aeronautica in un colpo d'occhio ! - Copyright ORBIFLY Dicembre 2007 - Disclaimer

ORBIFLY MET'MAP TEAM :

Programmazione e sviluppo : Alexandra Zaïnal
Concezione e sviluppo : Baudouin d'Aumeries
Co-Programmazione e sviluppo : Marc-Olivier Méhu
Supporto tecnico e logistico : Manuel Goepfert
Aiuto per la traduzione : Arnaldo La Scala

Contatto : metmap@orbifly.com




FONTI E CREDITI :

   NOAA